sensor_id;sensor_type;location;lat;lon;timestamp;pressure;altitude;pressure_sealevel;temperature;humidity
15646;BME280;7922;43.622;1.476;2023-07-30T00:00:27;100270.84;;;22.24;73.37
15646;BME280;7922;43.622;1.476;2023-07-30T00:02:53;100273.94;;;22.20;73.02
15646;BME280;7922;43.622;1.476;2023-07-30T00:05:18;100253.09;;;22.10;72.65
15646;BME280;7922;43.622;1.476;2023-07-30T00:07:43;100282.31;;;22.17;72.62
15646;BME280;7922;43.622;1.476;2023-07-30T00:10:09;100342.59;;;22.48;73.60
15646;BME280;7922;43.622;1.476;2023-07-30T00:12:34;100324.06;;;22.43;73.36
15646;BME280;7922;43.622;1.476;2023-07-30T00:14:59;100280.81;;;22.13;73.75
15646;BME280;7922;43.622;1.476;2023-07-30T00:17:25;100338.75;;;22.50;73.81
15646;BME280;7922;43.622;1.476;2023-07-30T00:19:50;100340.53;;;22.40;74.08
15646;BME280;7922;43.622;1.476;2023-07-30T00:22:15;100313.09;;;22.35;73.70
15646;BME280;7922;43.622;1.476;2023-07-30T00:24:40;100281.41;;;21.95;74.54
15646;BME280;7922;43.622;1.476;2023-07-30T00:27:06;100312.44;;;22.22;74.44
15646;BME280;7922;43.622;1.476;2023-07-30T00:29:31;100254.50;;;22.05;73.78
15646;BME280;7922;43.622;1.476;2023-07-30T00:31:56;100349.75;;;22.58;73.49
15646;BME280;7922;43.622;1.476;2023-07-30T00:34:22;100322.69;;;22.49;73.10
15646;BME280;7922;43.622;1.476;2023-07-30T00:36:47;100271.94;;;22.01;73.98
15646;BME280;7922;43.622;1.476;2023-07-30T00:39:12;100324.09;;;22.22;74.63
15646;BME280;7922;43.622;1.476;2023-07-30T00:41:37;100330.72;;;22.18;75.07
15646;BME280;7922;43.622;1.476;2023-07-30T00:44:03;100323.25;;;22.10;75.27
15646;BME280;7922;43.622;1.476;2023-07-30T00:46:28;100337.25;;;22.16;75.69
15646;BME280;7922;43.622;1.476;2023-07-30T00:48:53;100322.56;;;22.08;75.49
15646;BME280;7922;43.622;1.476;2023-07-30T00:51:19;100358.97;;;22.14;76.74
15646;BME280;7922;43.622;1.476;2023-07-30T00:53:45;100332.31;;;21.88;77.15
15646;BME280;7922;43.622;1.476;2023-07-30T00:56:11;100315.88;;;21.92;76.99
15646;BME280;7922;43.622;1.476;2023-07-30T00:58:36;100348.00;;;21.95;77.58
15646;BME280;7922;43.622;1.476;2023-07-30T01:01:02;100296.00;;;21.60;77.67
15646;BME280;7922;43.622;1.476;2023-07-30T01:03:27;100294.31;;;21.59;78.02
15646;BME280;7922;43.622;1.476;2023-07-30T01:05:52;100332.84;;;21.82;78.00
15646;BME280;7922;43.622;1.476;2023-07-30T01:08:18;100338.50;;;21.79;78.26
15646;BME280;7922;43.622;1.476;2023-07-30T01:10:44;100340.59;;;21.76;78.43
15646;BME280;7922;43.622;1.476;2023-07-30T01:13:10;100362.41;;;21.73;78.67
15646;BME280;7922;43.622;1.476;2023-07-30T01:15:37;100342.41;;;21.43;78.56
15646;BME280;7922;43.622;1.476;2023-07-30T01:18:02;100317.78;;;21.36;78.33
15646;BME280;7922;43.622;1.476;2023-07-30T01:20:31;100343.88;;;21.47;78.31
15646;BME280;7922;43.622;1.476;2023-07-30T01:22:58;100342.88;;;21.48;78.32
15646;BME280;7922;43.622;1.476;2023-07-30T01:25:24;100314.94;;;21.38;78.53
15646;BME280;7922;43.622;1.476;2023-07-30T01:27:54;100324.25;;;21.45;78.12
15646;BME280;7922;43.622;1.476;2023-07-30T01:30:30;100365.97;;;21.73;78.34
15646;BME280;7922;43.622;1.476;2023-07-30T01:32:58;100365.41;;;21.58;78.68
15646;BME280;7922;43.622;1.476;2023-07-30T01:35:27;100319.72;;;21.23;79.49
15646;BME280;7922;43.622;1.476;2023-07-30T01:37:53;100330.63;;;21.33;79.14
15646;BME280;7922;43.622;1.476;2023-07-30T01:40:20;100309.47;;;21.17;78.87
15646;BME280;7922;43.622;1.476;2023-07-30T01:42:45;100351.22;;;21.34;79.45
15646;BME280;7922;43.622;1.476;2023-07-30T01:45:10;100303.22;;;21.05;79.31
15646;BME280;7922;43.622;1.476;2023-07-30T01:47:36;100321.44;;;21.13;79.00
15646;BME280;7922;43.622;1.476;2023-07-30T01:50:01;100303.13;;;21.07;79.08
15646;BME280;7922;43.622;1.476;2023-07-30T01:52:27;100374.59;;;21.45;78.30
15646;BME280;7922;43.622;1.476;2023-07-30T01:54:52;100362.63;;;21.37;78.84
15646;BME280;7922;43.622;1.476;2023-07-30T01:57:17;100314.13;;;21.04;77.98
15646;BME280;7922;43.622;1.476;2023-07-30T01:59:42;100374.50;;;21.46;77.29
15646;BME280;7922;43.622;1.476;2023-07-30T02:02:08;100354.38;;;21.28;77.24
15646;BME280;7922;43.622;1.476;2023-07-30T02:04:33;100341.66;;;21.19;77.67
15646;BME280;7922;43.622;1.476;2023-07-30T02:06:58;100288.22;;;20.91;77.00
15646;BME280;7922;43.622;1.476;2023-07-30T02:09:24;100335.56;;;21.05;77.44
15646;BME280;7922;43.622;1.476;2023-07-30T02:11:49;100334.44;;;21.08;77.31
15646;BME280;7922;43.622;1.476;2023-07-30T02:14:14;100361.63;;;21.16;77.29
15646;BME280;7922;43.622;1.476;2023-07-30T02:16:39;100304.09;;;20.72;77.54
15646;BME280;7922;43.622;1.476;2023-07-30T02:19:05;100351.00;;;21.03;77.44
15646;BME280;7922;43.622;1.476;2023-07-30T02:21:30;100356.50;;;20.90;78.12
15646;BME280;7922;43.622;1.476;2023-07-30T02:23:55;100360.03;;;20.91;78.01
15646;BME280;7922;43.622;1.476;2023-07-30T02:26:20;100282.94;;;20.56;78.26
15646;BME280;7922;43.622;1.476;2023-07-30T02:28:46;100326.63;;;20.71;78.38
15646;BME280;7922;43.622;1.476;2023-07-30T02:31:11;100266.13;;;20.30;78.76
15646;BME280;7922;43.622;1.476;2023-07-30T02:33:36;100378.28;;;20.99;78.52
15646;BME280;7922;43.622;1.476;2023-07-30T02:36:02;100314.38;;;20.56;78.54
15646;BME280;7922;43.622;1.476;2023-07-30T02:38:28;100364.81;;;20.87;78.66
15646;BME280;7922;43.622;1.476;2023-07-30T02:40:53;100347.56;;;20.67;78.66
15646;BME280;7922;43.622;1.476;2023-07-30T02:43:18;100364.94;;;20.75;78.87
15646;BME280;7922;43.622;1.476;2023-07-30T02:45:47;100378.41;;;20.75;79.60
15646;BME280;7922;43.622;1.476;2023-07-30T02:48:12;100316.88;;;20.35;79.56
15646;BME280;7922;43.622;1.476;2023-07-30T02:50:37;100366.75;;;20.63;80.05
15646;BME280;7922;43.622;1.476;2023-07-30T02:53:03;100307.47;;;20.40;79.73
15646;BME280;7922;43.622;1.476;2023-07-30T02:55:28;100338.63;;;20.56;79.28
15646;BME280;7922;43.622;1.476;2023-07-30T02:57:53;100324.81;;;20.36;79.79
15646;BME280;7922;43.622;1.476;2023-07-30T03:00:18;100333.94;;;20.58;79.14
15646;BME280;7922;43.622;1.476;2023-07-30T03:02:44;100310.50;;;20.25;79.42
15646;BME280;7922;43.622;1.476;2023-07-30T03:05:09;100358.13;;;20.47;79.36
15646;BME280;7922;43.622;1.476;2023-07-30T03:07:35;100377.75;;;20.60;79.23
15646;BME280;7922;43.622;1.476;2023-07-30T03:10:00;100371.78;;;20.32;80.46
15646;BME280;7922;43.622;1.476;2023-07-30T03:12:26;100376.72;;;20.38;80.68
15646;BME280;7922;43.622;1.476;2023-07-30T03:14:51;100378.53;;;20.38;80.76
15646;BME280;7922;43.622;1.476;2023-07-30T03:17:16;100335.78;;;20.22;80.56
15646;BME280;7922;43.622;1.476;2023-07-30T03:19:41;100374.72;;;20.40;80.24
15646;BME280;7922;43.622;1.476;2023-07-30T03:22:07;100364.47;;;20.34;80.77
15646;BME280;7922;43.622;1.476;2023-07-30T03:24:32;100330.53;;;20.09;81.00
15646;BME280;7922;43.622;1.476;2023-07-30T03:26:57;100348.13;;;20.13;81.09
15646;BME280;7922;43.622;1.476;2023-07-30T03:29:23;100381.56;;;20.33;81.16
15646;BME280;7922;43.622;1.476;2023-07-30T03:31:48;100368.88;;;20.35;81.06
15646;BME280;7922;43.622;1.476;2023-07-30T03:34:13;100387.94;;;20.32;81.42
15646;BME280;7922;43.622;1.476;2023-07-30T03:36:38;100378.25;;;20.30;81.68
15646;BME280;7922;43.622;1.476;2023-07-30T03:39:04;100391.47;;;20.33;81.52
15646;BME280;7922;43.622;1.476;2023-07-30T03:41:29;100373.81;;;20.17;82.07
15646;BME280;7922;43.622;1.476;2023-07-30T03:43:54;100388.97;;;20.18;82.42
15646;BME280;7922;43.622;1.476;2023-07-30T03:46:20;100356.53;;;19.98;82.84
15646;BME280;7922;43.622;1.476;2023-07-30T03:48:45;100397.56;;;20.24;82.94
15646;BME280;7922;43.622;1.476;2023-07-30T03:51:10;100387.78;;;20.23;82.75
15646;BME280;7922;43.622;1.476;2023-07-30T03:53:36;100349.66;;;19.93;82.75
15646;BME280;7922;43.622;1.476;2023-07-30T03:56:01;100355.50;;;19.87;83.64
15646;BME280;7922;43.622;1.476;2023-07-30T03:58:27;100361.03;;;19.73;84.50
15646;BME280;7922;43.622;1.476;2023-07-30T04:00:52;100367.22;;;19.86;84.52
15646;BME280;7922;43.622;1.476;2023-07-30T04:03:17;100404.63;;;19.89;85.44
15646;BME280;7922;43.622;1.476;2023-07-30T04:05:42;100377.34;;;19.83;85.21
15646;BME280;7922;43.622;1.476;2023-07-30T04:08:08;100380.94;;;19.70;85.43
15646;BME280;7922;43.622;1.476;2023-07-30T04:10:33;100372.78;;;19.72;85.77
15646;BME280;7922;43.622;1.476;2023-07-30T04:12:59;100413.38;;;19.80;86.31
15646;BME280;7922;43.622;1.476;2023-07-30T04:15:24;100412.06;;;19.86;86.41
15646;BME280;7922;43.622;1.476;2023-07-30T04:17:49;100430.44;;;19.92;86.54
15646;BME280;7922;43.622;1.476;2023-07-30T04:20:15;100418.97;;;19.77;86.68
15646;BME280;7922;43.622;1.476;2023-07-30T04:22:40;100419.75;;;19.79;87.02
15646;BME280;7922;43.622;1.476;2023-07-30T04:25:05;100421.72;;;19.88;86.63
15646;BME280;7922;43.622;1.476;2023-07-30T04:27:31;100443.22;;;20.01;86.80
15646;BME280;7922;43.622;1.476;2023-07-30T04:29:56;100446.91;;;19.87;87.22
15646;BME280;7922;43.622;1.476;2023-07-30T04:32:21;100458.81;;;19.96;87.25
15646;BME280;7922;43.622;1.476;2023-07-30T04:34:47;100431.44;;;19.78;87.70
15646;BME280;7922;43.622;1.476;2023-07-30T04:37:12;100392.91;;;19.54;87.50
15646;BME280;7922;43.622;1.476;2023-07-30T04:39:37;100454.78;;;19.78;87.87
15646;BME280;7922;43.622;1.476;2023-07-30T04:42:03;100451.38;;;19.76;88.06
15646;BME280;7922;43.622;1.476;2023-07-30T04:44:28;100436.16;;;19.87;86.92
15646;BME280;7922;43.622;1.476;2023-07-30T04:46:54;100438.00;;;19.87;86.25
15646;BME280;7922;43.622;1.476;2023-07-30T04:49:19;100450.75;;;19.96;86.43
15646;BME280;7922;43.622;1.476;2023-07-30T04:51:44;100418.41;;;19.85;85.86
15646;BME280;7922;43.622;1.476;2023-07-30T04:54:10;100432.41;;;19.90;86.02
15646;BME280;7922;43.622;1.476;2023-07-30T04:56:36;100442.56;;;19.98;85.96
15646;BME280;7922;43.622;1.476;2023-07-30T04:59:01;100445.59;;;19.93;86.00
15646;BME280;7922;43.622;1.476;2023-07-30T05:01:26;100476.78;;;19.95;86.54
15646;BME280;7922;43.622;1.476;2023-07-30T05:03:52;100462.06;;;19.88;86.69
15646;BME280;7922;43.622;1.476;2023-07-30T05:06:17;100429.66;;;19.53;87.45
15646;BME280;7922;43.622;1.476;2023-07-30T05:08:42;100485.44;;;19.75;87.74
15646;BME280;7922;43.622;1.476;2023-07-30T05:11:07;100458.38;;;19.53;88.85
15646;BME280;7922;43.622;1.476;2023-07-30T05:13:33;100484.41;;;19.65;89.26
15646;BME280;7922;43.622;1.476;2023-07-30T05:15:58;100464.50;;;19.55;89.11
15646;BME280;7922;43.622;1.476;2023-07-30T05:18:23;100395.03;;;19.12;89.13
15646;BME280;7922;43.622;1.476;2023-07-30T05:20:49;100461.38;;;19.61;88.73
15646;BME280;7922;43.622;1.476;2023-07-30T05:23:15;100467.69;;;19.60;89.04
15646;BME280;7922;43.622;1.476;2023-07-30T05:25:40;100455.59;;;19.54;89.43
15646;BME280;7922;43.622;1.476;2023-07-30T05:28:05;100468.78;;;19.70;88.69
15646;BME280;7922;43.622;1.476;2023-07-30T05:30:30;100473.47;;;19.92;87.38
15646;BME280;7922;43.622;1.476;2023-07-30T05:32:56;100471.28;;;19.97;86.84
15646;BME280;7922;43.622;1.476;2023-07-30T05:35:21;100474.78;;;20.10;86.23
15646;BME280;7922;43.622;1.476;2023-07-30T05:37:46;100472.00;;;20.12;85.93
15646;BME280;7922;43.622;1.476;2023-07-30T05:40:12;100466.59;;;19.88;86.22
15646;BME280;7922;43.622;1.476;2023-07-30T05:42:37;100467.56;;;19.87;86.30
15646;BME280;7922;43.622;1.476;2023-07-30T05:45:02;100485.19;;;19.91;86.23
15646;BME280;7922;43.622;1.476;2023-07-30T05:47:28;100445.31;;;19.85;85.33
15646;BME280;7922;43.622;1.476;2023-07-30T05:49:53;100478.97;;;19.90;86.19
15646;BME280;7922;43.622;1.476;2023-07-30T05:52:18;100475.09;;;19.82;86.13
15646;BME280;7922;43.622;1.476;2023-07-30T05:54:43;100449.75;;;19.73;86.11
15646;BME280;7922;43.622;1.476;2023-07-30T05:57:09;100425.38;;;19.63;85.94
15646;BME280;7922;43.622;1.476;2023-07-30T05:59:34;100483.06;;;19.83;86.32
15646;BME280;7922;43.622;1.476;2023-07-30T06:02:02;100493.09;;;20.05;85.91
15646;BME280;7922;43.622;1.476;2023-07-30T06:04:28;100454.28;;;19.73;85.95
15646;BME280;7922;43.622;1.476;2023-07-30T06:06:53;100493.25;;;19.91;85.72
15646;BME280;7922;43.622;1.476;2023-07-30T06:09:18;100481.59;;;20.03;84.69
15646;BME280;7922;43.622;1.476;2023-07-30T06:11:44;100443.94;;;19.79;84.37
15646;BME280;7922;43.622;1.476;2023-07-30T06:14:09;100483.88;;;19.96;84.33
15646;BME280;7922;43.622;1.476;2023-07-30T06:16:34;100449.81;;;19.84;84.23
15646;BME280;7922;43.622;1.476;2023-07-30T06:19:00;100507.47;;;20.17;83.65
15646;BME280;7922;43.622;1.476;2023-07-30T06:21:25;100508.53;;;20.14;83.78
15646;BME280;7922;43.622;1.476;2023-07-30T06:23:50;100472.78;;;20.01;82.62
15646;BME280;7922;43.622;1.476;2023-07-30T06:26:15;100506.22;;;19.97;84.34
15646;BME280;7922;43.622;1.476;2023-07-30T06:28:41;100475.63;;;19.87;82.95
15646;BME280;7922;43.622;1.476;2023-07-30T06:31:06;100465.97;;;19.71;82.39
15646;BME280;7922;43.622;1.476;2023-07-30T06:33:31;100528.38;;;20.01;82.72
15646;BME280;7922;43.622;1.476;2023-07-30T06:35:56;100529.56;;;19.96;82.94
15646;BME280;7922;43.622;1.476;2023-07-30T06:38:22;100528.56;;;19.86;83.08
15646;BME280;7922;43.622;1.476;2023-07-30T06:40:47;100516.78;;;20.00;82.81
15646;BME280;7922;43.622;1.476;2023-07-30T06:43:12;100538.25;;;20.13;82.55
15646;BME280;7922;43.622;1.476;2023-07-30T06:45:38;100539.47;;;20.09;82.89
15646;BME280;7922;43.622;1.476;2023-07-30T06:48:03;100501.75;;;19.98;82.72
15646;BME280;7922;43.622;1.476;2023-07-30T06:50:28;100549.66;;;20.53;80.96
15646;BME280;7922;43.622;1.476;2023-07-30T06:52:53;100525.88;;;20.71;79.47
15646;BME280;7922;43.622;1.476;2023-07-30T06:55:19;100546.97;;;20.88;78.28
15646;BME280;7922;43.622;1.476;2023-07-30T06:57:44;100497.53;;;20.30;79.98
15646;BME280;7922;43.622;1.476;2023-07-30T07:00:10;100535.81;;;20.82;78.20
15646;BME280;7922;43.622;1.476;2023-07-30T07:02:35;100489.38;;;20.67;77.71
15646;BME280;7922;43.622;1.476;2023-07-30T07:05:00;100535.44;;;21.22;76.66
15646;BME280;7922;43.622;1.476;2023-07-30T07:07:26;100488.78;;;21.21;74.97
15646;BME280;7922;43.622;1.476;2023-07-30T07:09:51;100545.53;;;21.42;74.89
15646;BME280;7922;43.622;1.476;2023-07-30T07:12:16;100494.91;;;21.46;73.85
15646;BME280;7922;43.622;1.476;2023-07-30T07:14:41;100501.97;;;21.13;74.65
15646;BME280;7922;43.622;1.476;2023-07-30T07:17:07;100536.09;;;21.01;76.44
15646;BME280;7922;43.622;1.476;2023-07-30T07:19:32;100563.38;;;21.32;76.06
15646;BME280;7922;43.622;1.476;2023-07-30T07:21:57;100541.41;;;21.14;76.69
15646;BME280;7922;43.622;1.476;2023-07-30T07:24:22;100560.97;;;21.40;75.65
15646;BME280;7922;43.622;1.476;2023-07-30T07:26:48;100500.09;;;20.91;76.03
15646;BME280;7922;43.622;1.476;2023-07-30T07:29:13;100549.34;;;21.62;74.17
15646;BME280;7922;43.622;1.476;2023-07-30T07:31:38;100536.72;;;21.51;74.89
15646;BME280;7922;43.622;1.476;2023-07-30T07:34:03;100544.44;;;21.90;72.44
15646;BME280;7922;43.622;1.476;2023-07-30T07:36:29;100543.47;;;21.57;72.65
15646;BME280;7922;43.622;1.476;2023-07-30T07:38:54;100549.34;;;21.51;73.85
15646;BME280;7922;43.622;1.476;2023-07-30T07:41:19;100565.06;;;21.68;72.57
15646;BME280;7922;43.622;1.476;2023-07-30T07:43:47;100547.50;;;21.74;72.78
15646;BME280;7922;43.622;1.476;2023-07-30T07:46:12;100557.19;;;21.65;73.02
15646;BME280;7922;43.622;1.476;2023-07-30T07:48:37;100562.59;;;21.65;73.50
15646;BME280;7922;43.622;1.476;2023-07-30T07:51:03;100567.63;;;21.70;73.48
15646;BME280;7922;43.622;1.476;2023-07-30T07:53:28;100578.16;;;21.84;71.86
15646;BME280;7922;43.622;1.476;2023-07-30T07:55:53;100564.91;;;21.47;72.83
15646;BME280;7922;43.622;1.476;2023-07-30T07:58:18;100517.44;;;21.22;72.64
15646;BME280;7922;43.622;1.476;2023-07-30T08:00:44;100539.91;;;21.79;70.18
15646;BME280;7922;43.622;1.476;2023-07-30T08:03:09;100527.16;;;21.70;70.48
15646;BME280;7922;43.622;1.476;2023-07-30T08:05:34;100565.38;;;21.41;71.99
15646;BME280;7922;43.622;1.476;2023-07-30T08:08:00;100528.16;;;21.57;69.07
15646;BME280;7922;43.622;1.476;2023-07-30T08:10:25;100589.66;;;22.31;66.85
15646;BME280;7922;43.622;1.476;2023-07-30T08:12:50;100555.63;;;22.51;65.40
15646;BME280;7922;43.622;1.476;2023-07-30T08:15:15;100562.88;;;22.50;64.49
15646;BME280;7922;43.622;1.476;2023-07-30T08:17:41;100556.94;;;23.00;63.09
15646;BME280;7922;43.622;1.476;2023-07-30T08:20:06;100589.50;;;23.19;61.95
15646;BME280;7922;43.622;1.476;2023-07-30T08:22:32;100537.53;;;21.97;62.69
15646;BME280;7922;43.622;1.476;2023-07-30T08:24:58;100595.69;;;21.90;63.56
15646;BME280;7922;43.622;1.476;2023-07-30T08:27:23;100539.66;;;22.04;62.45
15646;BME280;7922;43.622;1.476;2023-07-30T08:29:48;100573.44;;;22.42;61.38
15646;BME280;7922;43.622;1.476;2023-07-30T08:32:13;100597.72;;;22.53;60.60
15646;BME280;7922;43.622;1.476;2023-07-30T08:34:39;100575.97;;;22.66;58.88
15646;BME280;7922;43.622;1.476;2023-07-30T08:37:04;100565.22;;;22.44;59.16
15646;BME280;7922;43.622;1.476;2023-07-30T08:39:29;100544.78;;;22.30;58.53
15646;BME280;7922;43.622;1.476;2023-07-30T08:41:55;100597.84;;;22.95;57.70
15646;BME280;7922;43.622;1.476;2023-07-30T08:44:20;100583.56;;;22.61;57.67
15646;BME280;7922;43.622;1.476;2023-07-30T08:46:45;100574.13;;;22.99;56.78
15646;BME280;7922;43.622;1.476;2023-07-30T08:49:11;100592.72;;;23.55;55.77
15646;BME280;7922;43.622;1.476;2023-07-30T08:51:36;100564.72;;;23.35;56.07
15646;BME280;7922;43.622;1.476;2023-07-30T08:54:02;100553.25;;;23.22;55.36
15646;BME280;7922;43.622;1.476;2023-07-30T08:56:28;100557.97;;;23.71;53.08
15646;BME280;7922;43.622;1.476;2023-07-30T08:58:56;100575.81;;;24.34;51.39
15646;BME280;7922;43.622;1.476;2023-07-30T09:01:22;100567.28;;;24.38;50.54
15646;BME280;7922;43.622;1.476;2023-07-30T09:03:52;100528.88;;;24.14;50.54
15646;BME280;7922;43.622;1.476;2023-07-30T09:06:18;100576.22;;;23.79;51.75
15646;BME280;7922;43.622;1.476;2023-07-30T09:08:43;100579.59;;;23.71;52.26
15646;BME280;7922;43.622;1.476;2023-07-30T09:11:09;100594.75;;;23.63;52.07
15646;BME280;7922;43.622;1.476;2023-07-30T09:13:38;100587.72;;;23.71;51.86
15646;BME280;7922;43.622;1.476;2023-07-30T09:16:11;100574.78;;;23.75;51.57
15646;BME280;7922;43.622;1.476;2023-07-30T09:18:40;100592.09;;;24.03;51.61
15646;BME280;7922;43.622;1.476;2023-07-30T09:21:06;100577.22;;;24.18;50.09
15646;BME280;7922;43.622;1.476;2023-07-30T09:23:31;100576.56;;;23.44;52.02
15646;BME280;7922;43.622;1.476;2023-07-30T09:25:58;100562.00;;;23.87;51.63
15646;BME280;7922;43.622;1.476;2023-07-30T09:28:30;100570.06;;;23.56;51.73
15646;BME280;7922;43.622;1.476;2023-07-30T09:31:06;100546.72;;;23.55;51.62
15646;BME280;7922;43.622;1.476;2023-07-30T09:33:32;100576.41;;;23.45;51.62
15646;BME280;7922;43.622;1.476;2023-07-30T09:36:01;100514.19;;;23.66;50.93
15646;BME280;7922;43.622;1.476;2023-07-30T09:38:26;100578.88;;;24.10;50.80
15646;BME280;7922;43.622;1.476;2023-07-30T09:40:52;100548.31;;;24.38;49.95
15646;BME280;7922;43.622;1.476;2023-07-30T09:43:17;100567.91;;;24.52;49.65
15646;BME280;7922;43.622;1.476;2023-07-30T09:45:45;100584.78;;;24.24;51.15
15646;BME280;7922;43.622;1.476;2023-07-30T09:48:11;100585.50;;;23.86;51.24
15646;BME280;7922;43.622;1.476;2023-07-30T09:50:37;100535.06;;;23.54;52.09
15646;BME280;7922;43.622;1.476;2023-07-30T09:53:03;100590.28;;;23.73;52.24
15646;BME280;7922;43.622;1.476;2023-07-30T09:55:30;100586.31;;;23.56;53.06
15646;BME280;7922;43.622;1.476;2023-07-30T09:57:55;100577.59;;;24.54;50.87
15646;BME280;7922;43.622;1.476;2023-07-30T10:00:20;100562.81;;;24.18;51.41
15646;BME280;7922;43.622;1.476;2023-07-30T10:02:47;100585.13;;;24.41;50.97
15646;BME280;7922;43.622;1.476;2023-07-30T10:05:19;100576.91;;;25.20;49.15
15646;BME280;7922;43.622;1.476;2023-07-30T10:07:56;100545.09;;;24.93;49.41
15646;BME280;7922;43.622;1.476;2023-07-30T10:10:24;100573.72;;;25.44;48.10
15646;BME280;7922;43.622;1.476;2023-07-30T10:12:50;100569.50;;;25.79;47.88
15646;BME280;7922;43.622;1.476;2023-07-30T10:15:20;100529.72;;;25.97;46.79
15646;BME280;7922;43.622;1.476;2023-07-30T10:17:45;100569.94;;;26.57;45.45
15646;BME280;7922;43.622;1.476;2023-07-30T10:20:21;100534.72;;;25.92;46.33
15646;BME280;7922;43.622;1.476;2023-07-30T10:22:46;100565.34;;;25.18;48.40
15646;BME280;7922;43.622;1.476;2023-07-30T10:25:12;100573.03;;;24.64;49.71
15646;BME280;7922;43.622;1.476;2023-07-30T10:27:39;100577.78;;;24.91;49.72
15646;BME280;7922;43.622;1.476;2023-07-30T10:30:13;100545.44;;;24.20;50.86
15646;BME280;7922;43.622;1.476;2023-07-30T10:33:02;100516.09;;;24.35;49.95
15646;BME280;7922;43.622;1.476;2023-07-30T10:35:52;100583.59;;;24.96;50.11
15646;BME280;7922;43.622;1.476;2023-07-30T10:38:28;100570.19;;;24.56;50.08
15646;BME280;7922;43.622;1.476;2023-07-30T10:41:14;100594.69;;;24.45;50.92
15646;BME280;7922;43.622;1.476;2023-07-30T10:46:08;100561.91;;;24.58;49.72
15646;BME280;7922;43.622;1.476;2023-07-30T10:48:36;100577.91;;;25.09;49.22
15646;BME280;7922;43.622;1.476;2023-07-30T10:51:04;100563.34;;;25.01;49.51
15646;BME280;7922;43.622;1.476;2023-07-30T10:53:29;100571.75;;;24.97;49.63
15646;BME280;7922;43.622;1.476;2023-07-30T10:55:58;100574.50;;;25.17;48.50
15646;BME280;7922;43.622;1.476;2023-07-30T10:58:24;100550.91;;;25.37;48.74
15646;BME280;7922;43.622;1.476;2023-07-30T11:00:49;100562.31;;;25.87;47.69
15646;BME280;7922;43.622;1.476;2023-07-30T11:03:14;100566.59;;;25.43;48.36
15646;BME280;7922;43.622;1.476;2023-07-30T11:05:40;100581.63;;;24.89;49.08
15646;BME280;7922;43.622;1.476;2023-07-30T11:08:05;100585.16;;;25.09;49.67
15646;BME280;7922;43.622;1.476;2023-07-30T11:10:30;100589.19;;;25.24;49.89
15646;BME280;7922;43.622;1.476;2023-07-30T11:12:57;100577.91;;;25.19;48.38
15646;BME280;7922;43.622;1.476;2023-07-30T11:15:22;100571.50;;;24.81;49.25
15646;BME280;7922;43.622;1.476;2023-07-30T11:17:48;100518.22;;;24.22;49.84
15646;BME280;7922;43.622;1.476;2023-07-30T11:20:24;100567.31;;;24.58;48.80
15646;BME280;7922;43.622;1.476;2023-07-30T11:22:49;100525.25;;;24.54;48.92
15646;BME280;7922;43.622;1.476;2023-07-30T11:25:18;100558.22;;;24.88;48.97
15646;BME280;7922;43.622;1.476;2023-07-30T11:27:47;100561.06;;;25.35;48.13
15646;BME280;7922;43.622;1.476;2023-07-30T11:30:12;100554.72;;;25.44;47.57
15646;BME280;7922;43.622;1.476;2023-07-30T11:32:38;100515.56;;;24.90;48.09
15646;BME280;7922;43.622;1.476;2023-07-30T11:35:04;100566.03;;;24.91;48.57
15646;BME280;7922;43.622;1.476;2023-07-30T11:37:30;100541.09;;;24.68;48.76
15646;BME280;7922;43.622;1.476;2023-07-30T11:39:55;100556.22;;;24.90;48.94
15646;BME280;7922;43.622;1.476;2023-07-30T11:42:21;100499.13;;;25.01;48.15
15646;BME280;7922;43.622;1.476;2023-07-30T11:44:46;100563.47;;;25.09;48.53
15646;BME280;7922;43.622;1.476;2023-07-30T11:47:21;100544.81;;;25.06;49.27
15646;BME280;7922;43.622;1.476;2023-07-30T11:49:57;100538.63;;;25.33;48.12
15646;BME280;7922;43.622;1.476;2023-07-30T11:52:22;100553.78;;;24.96;48.60
15646;BME280;7922;43.622;1.476;2023-07-30T11:54:48;100545.50;;;25.08;49.24
15646;BME280;7922;43.622;1.476;2023-07-30T11:57:13;100542.91;;;25.35;48.91
15646;BME280;7922;43.622;1.476;2023-07-30T11:59:39;100548.50;;;25.81;47.82
15646;BME280;7922;43.622;1.476;2023-07-30T12:02:05;100542.47;;;25.30;47.93
15646;BME280;7922;43.622;1.476;2023-07-30T12:04:31;100553.41;;;25.58;48.01
15646;BME280;7922;43.622;1.476;2023-07-30T12:06:56;100546.91;;;25.78;46.78
15646;BME280;7922;43.622;1.476;2023-07-30T12:09:23;100490.28;;;25.56;47.50
15646;BME280;7922;43.622;1.476;2023-07-30T12:11:53;100536.00;;;25.98;46.63
15646;BME280;7922;43.622;1.476;2023-07-30T12:14:22;100517.97;;;25.59;46.89
15646;BME280;7922;43.622;1.476;2023-07-30T12:16:47;100527.91;;;25.41;46.68
15646;BME280;7922;43.622;1.476;2023-07-30T12:19:13;100530.09;;;25.28;47.79
15646;BME280;7922;43.622;1.476;2023-07-30T12:21:38;100528.97;;;25.20;47.52
15646;BME280;7922;43.622;1.476;2023-07-30T12:24:04;100543.50;;;25.66;46.95
15646;BME280;7922;43.622;1.476;2023-07-30T12:26:29;100542.13;;;25.53;46.55
15646;BME280;7922;43.622;1.476;2023-07-30T12:28:55;100478.31;;;25.49;47.28
15646;BME280;7922;43.622;1.476;2023-07-30T12:31:20;100507.22;;;26.05;46.00
15646;BME280;7922;43.622;1.476;2023-07-30T12:33:46;100506.53;;;26.21;46.17
15646;BME280;7922;43.622;1.476;2023-07-30T12:36:11;100503.84;;;26.38;45.56
15646;BME280;7922;43.622;1.476;2023-07-30T12:38:36;100529.34;;;26.55;45.91
15646;BME280;7922;43.622;1.476;2023-07-30T12:41:02;100451.34;;;26.02;45.40
15646;BME280;7922;43.622;1.476;2023-07-30T12:43:27;100514.63;;;26.30;45.12
15646;BME280;7922;43.622;1.476;2023-07-30T12:45:52;100533.78;;;26.29;45.46
15646;BME280;7922;43.622;1.476;2023-07-30T12:48:17;100454.16;;;26.28;44.61
15646;BME280;7922;43.622;1.476;2023-07-30T12:50:43;100476.47;;;26.50;44.20
15646;BME280;7922;43.622;1.476;2023-07-30T12:53:08;100508.41;;;26.20;45.39
15646;BME280;7922;43.622;1.476;2023-07-30T12:55:33;100524.41;;;26.23;45.32